sensor_id;sensor_type;location;lat;lon;timestamp;temperature;humidity
10802;DHT22;5453;50.852;7.102;2022-10-31T00:01:26;13.80;99.90
10802;DHT22;5453;50.852;7.102;2022-10-31T00:03:59;13.80;99.90
10802;DHT22;5453;50.852;7.102;2022-10-31T00:06:32;13.80;99.90
10802;DHT22;5453;50.852;7.102;2022-10-31T00:09:04;13.80;99.90
10802;DHT22;5453;50.852;7.102;2022-10-31T00:11:38;13.80;99.90
10802;DHT22;5453;50.852;7.102;2022-10-31T00:14:10;13.70;99.90
10802;DHT22;5453;50.852;7.102;2022-10-31T00:16:42;13.70;99.90
10802;DHT22;5453;50.852;7.102;2022-10-31T00:19:14;13.70;99.90
10802;DHT22;5453;50.852;7.102;2022-10-31T00:21:46;13.60;99.90
10802;DHT22;5453;50.852;7.102;2022-10-31T00:24:18;13.60;99.90
10802;DHT22;5453;50.852;7.102;2022-10-31T00:26:52;13.60;99.90
10802;DHT22;5453;50.852;7.102;2022-10-31T00:29:26;13.50;99.90
10802;DHT22;5453;50.852;7.102;2022-10-31T00:31:58;13.50;99.90
10802;DHT22;5453;50.852;7.102;2022-10-31T00:34:30;13.50;99.90
10802;DHT22;5453;50.852;7.102;2022-10-31T00:37:04;13.40;99.90
10802;DHT22;5453;50.852;7.102;2022-10-31T00:39:36;13.40;99.90
10802;DHT22;5453;50.852;7.102;2022-10-31T00:42:09;13.40;99.90
10802;DHT22;5453;50.852;7.102;2022-10-31T00:44:42;13.40;99.90
10802;DHT22;5453;50.852;7.102;2022-10-31T00:47:14;13.40;99.90
10802;DHT22;5453;50.852;7.102;2022-10-31T00:49:46;13.40;99.90
10802;DHT22;5453;50.852;7.102;2022-10-31T00:52:18;13.50;99.90
10802;DHT22;5453;50.852;7.102;2022-10-31T00:54:50;13.50;99.90
10802;DHT22;5453;50.852;7.102;2022-10-31T00:57:23;13.50;99.90
10802;DHT22;5453;50.852;7.102;2022-10-31T00:59:55;13.50;99.90
10802;DHT22;5453;50.852;7.102;2022-10-31T01:02:28;13.50;99.90
10802;DHT22;5453;50.852;7.102;2022-10-31T01:05:00;13.50;99.90
10802;DHT22;5453;50.852;7.102;2022-10-31T01:07:35;13.50;99.90
10802;DHT22;5453;50.852;7.102;2022-10-31T01:10:09;13.40;99.90
10802;DHT22;5453;50.852;7.102;2022-10-31T01:12:44;13.40;99.90
10802;DHT22;5453;50.852;7.102;2022-10-31T01:15:20;13.40;99.90
10802;DHT22;5453;50.852;7.102;2022-10-31T01:17:52;13.40;99.90
10802;DHT22;5453;50.852;7.102;2022-10-31T01:20:25;13.40;99.90
10802;DHT22;5453;50.852;7.102;2022-10-31T01:22:58;13.40;99.90
10802;DHT22;5453;50.852;7.102;2022-10-31T01:25:30;13.50;99.90
10802;DHT22;5453;50.852;7.102;2022-10-31T01:28:03;13.50;99.90
10802;DHT22;5453;50.852;7.102;2022-10-31T01:30:35;13.50;99.90
10802;DHT22;5453;50.852;7.102;2022-10-31T01:33:07;13.40;99.90
10802;DHT22;5453;50.852;7.102;2022-10-31T01:35:39;13.40;99.90
10802;DHT22;5453;50.852;7.102;2022-10-31T01:38:11;13.40;99.90
10802;DHT22;5453;50.852;7.102;2022-10-31T01:40:43;13.40;99.90
10802;DHT22;5453;50.852;7.102;2022-10-31T01:43:17;13.40;99.90
10802;DHT22;5453;50.852;7.102;2022-10-31T01:45:52;13.30;99.90
10802;DHT22;5453;50.852;7.102;2022-10-31T01:48:27;13.30;99.90
10802;DHT22;5453;50.852;7.102;2022-10-31T01:51:02;13.30;99.90
10802;DHT22;5453;50.852;7.102;2022-10-31T01:53:36;13.30;99.90
10802;DHT22;5453;50.852;7.102;2022-10-31T01:56:08;13.30;99.90
10802;DHT22;5453;50.852;7.102;2022-10-31T01:58:45;13.30;99.90
10802;DHT22;5453;50.852;7.102;2022-10-31T02:01:20;13.30;99.90
10802;DHT22;5453;50.852;7.102;2022-10-31T02:03:53;13.30;99.90
10802;DHT22;5453;50.852;7.102;2022-10-31T02:06:31;13.30;99.90
10802;DHT22;5453;50.852;7.102;2022-10-31T02:09:06;13.40;99.90
10802;DHT22;5453;50.852;7.102;2022-10-31T02:11:38;13.40;99.90
10802;DHT22;5453;50.852;7.102;2022-10-31T02:14:15;13.40;99.90
10802;DHT22;5453;50.852;7.102;2022-10-31T02:16:49;13.30;99.90
10802;DHT22;5453;50.852;7.102;2022-10-31T02:19:26;13.40;99.90
10802;DHT22;5453;50.852;7.102;2022-10-31T02:22:09;13.40;99.90
10802;DHT22;5453;50.852;7.102;2022-10-31T02:24:46;13.30;99.90
10802;DHT22;5453;50.852;7.102;2022-10-31T02:27:40;13.40;99.90
10802;DHT22;5453;50.852;7.102;2022-10-31T02:30:31;13.40;99.90
10802;DHT22;5453;50.852;7.102;2022-10-31T02:33:18;13.40;99.90
10802;DHT22;5453;50.852;7.102;2022-10-31T02:36:01;13.40;99.90
10802;DHT22;5453;50.852;7.102;2022-10-31T02:38:43;13.40;99.90
10802;DHT22;5453;50.852;7.102;2022-10-31T02:41:34;13.30;99.90
10802;DHT22;5453;50.852;7.102;2022-10-31T02:44:21;13.30;99.90
10802;DHT22;5453;50.852;7.102;2022-10-31T02:47:00;13.30;99.90
10802;DHT22;5453;50.852;7.102;2022-10-31T02:49:40;13.30;99.90
10802;DHT22;5453;50.852;7.102;2022-10-31T02:52:20;13.20;99.90
10802;DHT22;5453;50.852;7.102;2022-10-31T02:54:56;13.20;99.90
10802;DHT22;5453;50.852;7.102;2022-10-31T02:57:31;13.20;99.90
10802;DHT22;5453;50.852;7.102;2022-10-31T03:00:07;13.20;99.90
10802;DHT22;5453;50.852;7.102;2022-10-31T03:02:54;13.10;99.90
10802;DHT22;5453;50.852;7.102;2022-10-31T03:05:43;13.10;99.90
10802;DHT22;5453;50.852;7.102;2022-10-31T03:08:23;13.10;99.90
10802;DHT22;5453;50.852;7.102;2022-10-31T03:10:58;13.10;99.90
10802;DHT22;5453;50.852;7.102;2022-10-31T03:13:35;13.00;99.90
10802;DHT22;5453;50.852;7.102;2022-10-31T03:16:15;13.10;99.90
10802;DHT22;5453;50.852;7.102;2022-10-31T03:18:52;13.10;99.90
10802;DHT22;5453;50.852;7.102;2022-10-31T03:21:32;13.10;99.90
10802;DHT22;5453;50.852;7.102;2022-10-31T03:24:08;13.10;99.90
10802;DHT22;5453;50.852;7.102;2022-10-31T03:26:44;13.10;99.90
10802;DHT22;5453;50.852;7.102;2022-10-31T03:29:22;13.10;99.90
10802;DHT22;5453;50.852;7.102;2022-10-31T03:32:00;13.10;99.90
10802;DHT22;5453;50.852;7.102;2022-10-31T03:34:36;13.10;99.90
10802;DHT22;5453;50.852;7.102;2022-10-31T03:37:13;13.10;99.90
10802;DHT22;5453;50.852;7.102;2022-10-31T03:39:48;13.10;99.90
10802;DHT22;5453;50.852;7.102;2022-10-31T03:42:25;13.10;99.90
10802;DHT22;5453;50.852;7.102;2022-10-31T03:45:02;13.10;99.90
10802;DHT22;5453;50.852;7.102;2022-10-31T03:47:38;13.00;99.90
10802;DHT22;5453;50.852;7.102;2022-10-31T03:50:13;13.00;99.90
10802;DHT22;5453;50.852;7.102;2022-10-31T03:52:51;13.00;99.90
10802;DHT22;5453;50.852;7.102;2022-10-31T03:55:31;13.00;99.90
10802;DHT22;5453;50.852;7.102;2022-10-31T03:58:07;13.00;99.90
10802;DHT22;5453;50.852;7.102;2022-10-31T04:00:44;13.00;99.90
10802;DHT22;5453;50.852;7.102;2022-10-31T04:03:20;13.00;99.90
10802;DHT22;5453;50.852;7.102;2022-10-31T04:05:59;13.00;99.90
10802;DHT22;5453;50.852;7.102;2022-10-31T04:08:39;13.00;99.90
10802;DHT22;5453;50.852;7.102;2022-10-31T04:11:15;13.00;99.90
10802;DHT22;5453;50.852;7.102;2022-10-31T04:13:53;13.00;99.90
10802;DHT22;5453;50.852;7.102;2022-10-31T04:16:27;13.00;99.90
10802;DHT22;5453;50.852;7.102;2022-10-31T04:18:59;13.00;99.90
10802;DHT22;5453;50.852;7.102;2022-10-31T04:21:32;13.00;99.90
10802;DHT22;5453;50.852;7.102;2022-10-31T04:24:06;13.00;99.90
10802;DHT22;5453;50.852;7.102;2022-10-31T04:26:38;13.00;99.90
10802;DHT22;5453;50.852;7.102;2022-10-31T04:29:11;13.00;99.90
10802;DHT22;5453;50.852;7.102;2022-10-31T04:31:43;13.00;99.90
10802;DHT22;5453;50.852;7.102;2022-10-31T04:34:15;13.00;99.90
10802;DHT22;5453;50.852;7.102;2022-10-31T04:36:47;13.00;99.90
10802;DHT22;5453;50.852;7.102;2022-10-31T04:39:23;13.00;99.90
10802;DHT22;5453;50.852;7.102;2022-10-31T04:42:14;12.90;99.90
10802;DHT22;5453;50.852;7.102;2022-10-31T04:44:46;12.90;99.90
10802;DHT22;5453;50.852;7.102;2022-10-31T04:47:19;12.90;99.90
10802;DHT22;5453;50.852;7.102;2022-10-31T04:49:51;12.90;99.90
10802;DHT22;5453;50.852;7.102;2022-10-31T04:52:23;12.90;99.90
10802;DHT22;5453;50.852;7.102;2022-10-31T04:54:57;12.80;99.90
10802;DHT22;5453;50.852;7.102;2022-10-31T04:57:48;12.80;99.90
10802;DHT22;5453;50.852;7.102;2022-10-31T05:00:23;12.70;99.90
10802;DHT22;5453;50.852;7.102;2022-10-31T05:02:57;12.80;99.90
10802;DHT22;5453;50.852;7.102;2022-10-31T05:05:31;12.70;99.90
10802;DHT22;5453;50.852;7.102;2022-10-31T05:08:07;12.70;99.90
10802;DHT22;5453;50.852;7.102;2022-10-31T05:10:41;12.70;99.90
10802;DHT22;5453;50.852;7.102;2022-10-31T05:13:13;12.70;99.90
10802;DHT22;5453;50.852;7.102;2022-10-31T05:16:09;12.60;99.90
10802;DHT22;5453;50.852;7.102;2022-10-31T05:19:04;12.60;99.90
10802;DHT22;5453;50.852;7.102;2022-10-31T05:21:48;12.60;99.90
10802;DHT22;5453;50.852;7.102;2022-10-31T05:24:21;12.50;99.90
10802;DHT22;5453;50.852;7.102;2022-10-31T05:26:54;12.50;99.90
10802;DHT22;5453;50.852;7.102;2022-10-31T05:29:26;12.50;99.90
10802;DHT22;5453;50.852;7.102;2022-10-31T05:31:59;12.50;99.90
10802;DHT22;5453;50.852;7.102;2022-10-31T05:35:00;12.40;99.90
10802;DHT22;5453;50.852;7.102;2022-10-31T05:37:53;12.40;99.90
10802;DHT22;5453;50.852;7.102;2022-10-31T05:40:26;12.40;99.90
10802;DHT22;5453;50.852;7.102;2022-10-31T05:43:00;12.30;99.90
10802;DHT22;5453;50.852;7.102;2022-10-31T05:45:32;12.30;99.90
10802;DHT22;5453;50.852;7.102;2022-10-31T05:48:08;12.40;99.90
10802;DHT22;5453;50.852;7.102;2022-10-31T05:50:49;12.40;99.90
10802;DHT22;5453;50.852;7.102;2022-10-31T05:53:22;12.30;99.90
10802;DHT22;5453;50.852;7.102;2022-10-31T05:55:54;12.30;99.90
10802;DHT22;5453;50.852;7.102;2022-10-31T05:58:28;12.20;99.90
10802;DHT22;5453;50.852;7.102;2022-10-31T06:01:10;12.20;99.90
10802;DHT22;5453;50.852;7.102;2022-10-31T06:03:42;12.20;99.90
10802;DHT22;5453;50.852;7.102;2022-10-31T06:06:14;12.20;99.90
10802;DHT22;5453;50.852;7.102;2022-10-31T06:08:46;12.20;99.90
10802;DHT22;5453;50.852;7.102;2022-10-31T06:11:23;12.20;99.90
10802;DHT22;5453;50.852;7.102;2022-10-31T06:14:17;12.20;99.90
10802;DHT22;5453;50.852;7.102;2022-10-31T06:16:55;12.20;99.90
10802;DHT22;5453;50.852;7.102;2022-10-31T06:19:45;12.20;99.90
10802;DHT22;5453;50.852;7.102;2022-10-31T06:22:23;12.20;99.90
10802;DHT22;5453;50.852;7.102;2022-10-31T06:24:56;12.10;99.90
10802;DHT22;5453;50.852;7.102;2022-10-31T06:27:33;12.10;99.90
10802;DHT22;5453;50.852;7.102;2022-10-31T06:30:14;12.10;99.90
10802;DHT22;5453;50.852;7.102;2022-10-31T06:32:49;12.10;99.90
10802;DHT22;5453;50.852;7.102;2022-10-31T06:35:21;12.10;99.90
10802;DHT22;5453;50.852;7.102;2022-10-31T06:37:56;12.10;99.90
10802;DHT22;5453;50.852;7.102;2022-10-31T06:40:43;12.10;99.90
10802;DHT22;5453;50.852;7.102;2022-10-31T06:43:24;12.10;99.90
10802;DHT22;5453;50.852;7.102;2022-10-31T06:46:12;12.10;99.90
10802;DHT22;5453;50.852;7.102;2022-10-31T06:48:52;12.20;99.90
10802;DHT22;5453;50.852;7.102;2022-10-31T06:51:36;12.20;99.90
10802;DHT22;5453;50.852;7.102;2022-10-31T06:54:08;12.20;99.90
10802;DHT22;5453;50.852;7.102;2022-10-31T06:56:40;12.20;99.90
10802;DHT22;5453;50.852;7.102;2022-10-31T06:59:13;12.20;99.90
10802;DHT22;5453;50.852;7.102;2022-10-31T07:02:08;12.30;99.90
10802;DHT22;5453;50.852;7.102;2022-10-31T07:04:41;12.30;99.90
10802;DHT22;5453;50.852;7.102;2022-10-31T07:07:17;12.40;99.90
10802;DHT22;5453;50.852;7.102;2022-10-31T07:09:51;12.40;99.90
10802;DHT22;5453;50.852;7.102;2022-10-31T07:12:31;12.50;99.90
10802;DHT22;5453;50.852;7.102;2022-10-31T07:15:04;12.50;99.90
10802;DHT22;5453;50.852;7.102;2022-10-31T07:17:38;12.60;99.90
10802;DHT22;5453;50.852;7.102;2022-10-31T07:20:12;12.60;99.90
10802;DHT22;5453;50.852;7.102;2022-10-31T07:22:45;12.60;99.90
10802;DHT22;5453;50.852;7.102;2022-10-31T07:25:17;12.70;99.90
10802;DHT22;5453;50.852;7.102;2022-10-31T07:28:10;12.70;99.90
10802;DHT22;5453;50.852;7.102;2022-10-31T07:30:42;12.80;99.90
10802;DHT22;5453;50.852;7.102;2022-10-31T07:33:16;12.80;99.90
10802;DHT22;5453;50.852;7.102;2022-10-31T07:36:20;12.90;99.90
10802;DHT22;5453;50.852;7.102;2022-10-31T07:38:55;13.00;99.90
10802;DHT22;5453;50.852;7.102;2022-10-31T07:41:29;13.00;99.90
10802;DHT22;5453;50.852;7.102;2022-10-31T07:44:01;13.00;99.90
10802;DHT22;5453;50.852;7.102;2022-10-31T07:46:51;13.10;99.90
10802;DHT22;5453;50.852;7.102;2022-10-31T07:49:43;13.10;99.90
10802;DHT22;5453;50.852;7.102;2022-10-31T07:52:58;13.20;99.90
10802;DHT22;5453;50.852;7.102;2022-10-31T07:55:52;13.30;99.90
10802;DHT22;5453;50.852;7.102;2022-10-31T07:58:29;13.40;99.90
10802;DHT22;5453;50.852;7.102;2022-10-31T08:01:03;13.50;99.90
10802;DHT22;5453;50.852;7.102;2022-10-31T08:03:44;13.50;99.90
10802;DHT22;5453;50.852;7.102;2022-10-31T08:06:37;13.60;99.90
10802;DHT22;5453;50.852;7.102;2022-10-31T08:09:24;13.70;99.90
10802;DHT22;5453;50.852;7.102;2022-10-31T08:11:57;13.80;99.90
10802;DHT22;5453;50.852;7.102;2022-10-31T08:14:29;13.90;99.90
10802;DHT22;5453;50.852;7.102;2022-10-31T08:17:02;13.90;99.90
10802;DHT22;5453;50.852;7.102;2022-10-31T08:19:44;14.00;99.90
10802;DHT22;5453;50.852;7.102;2022-10-31T08:22:20;14.00;99.90
10802;DHT22;5453;50.852;7.102;2022-10-31T08:24:53;14.00;99.90
10802;DHT22;5453;50.852;7.102;2022-10-31T08:27:26;14.00;99.90
10802;DHT22;5453;50.852;7.102;2022-10-31T08:30:00;14.00;99.90
10802;DHT22;5453;50.852;7.102;2022-10-31T08:32:33;14.00;99.90
10802;DHT22;5453;50.852;7.102;2022-10-31T08:35:23;14.00;99.90
10802;DHT22;5453;50.852;7.102;2022-10-31T08:38:22;14.10;99.90
10802;DHT22;5453;50.852;7.102;2022-10-31T08:40:55;14.10;99.90
10802;DHT22;5453;50.852;7.102;2022-10-31T08:43:27;14.20;99.90
10802;DHT22;5453;50.852;7.102;2022-10-31T08:45:59;14.20;99.90
10802;DHT22;5453;50.852;7.102;2022-10-31T08:48:33;14.20;99.90
10802;DHT22;5453;50.852;7.102;2022-10-31T08:51:08;14.30;99.90
10802;DHT22;5453;50.852;7.102;2022-10-31T08:53:42;14.40;99.90
10802;DHT22;5453;50.852;7.102;2022-10-31T08:56:37;14.40;99.90
10802;DHT22;5453;50.852;7.102;2022-10-31T08:59:18;14.40;99.90
10802;DHT22;5453;50.852;7.102;2022-10-31T09:02:13;14.50;99.90
10802;DHT22;5453;50.852;7.102;2022-10-31T09:04:46;14.50;99.90
10802;DHT22;5453;50.852;7.102;2022-10-31T09:07:18;14.70;99.90
10802;DHT22;5453;50.852;7.102;2022-10-31T09:09:52;14.80;99.90
10802;DHT22;5453;50.852;7.102;2022-10-31T09:12:24;14.80;99.90
10802;DHT22;5453;50.852;7.102;2022-10-31T09:15:15;14.90;99.90
10802;DHT22;5453;50.852;7.102;2022-10-31T09:17:53;14.90;99.90
10802;DHT22;5453;50.852;7.102;2022-10-31T09:20:35;14.90;99.90
10802;DHT22;5453;50.852;7.102;2022-10-31T09:23:10;14.90;99.90
10802;DHT22;5453;50.852;7.102;2022-10-31T09:25:46;14.90;99.90
10802;DHT22;5453;50.852;7.102;2022-10-31T09:28:48;14.90;99.90
10802;DHT22;5453;50.852;7.102;2022-10-31T09:31:22;15.00;99.90
10802;DHT22;5453;50.852;7.102;2022-10-31T09:34:02;15.10;99.90
10802;DHT22;5453;50.852;7.102;2022-10-31T09:36:40;15.20;99.90
10802;DHT22;5453;50.852;7.102;2022-10-31T09:39:19;15.30;99.90
10802;DHT22;5453;50.852;7.102;2022-10-31T09:42:36;15.50;99.90
10802;DHT22;5453;50.852;7.102;2022-10-31T09:45:25;15.70;99.90
10802;DHT22;5453;50.852;7.102;2022-10-31T09:48:20;16.00;99.90
10802;DHT22;5453;50.852;7.102;2022-10-31T09:51:15;16.20;99.90
10802;DHT22;5453;50.852;7.102;2022-10-31T09:54:04;16.60;99.90
10802;DHT22;5453;50.852;7.102;2022-10-31T09:56:38;17.00;99.90
10802;DHT22;5453;50.852;7.102;2022-10-31T09:59:16;17.30;99.90
10802;DHT22;5453;50.852;7.102;2022-10-31T10:01:56;17.40;99.90
10802;DHT22;5453;50.852;7.102;2022-10-31T10:04:38;17.50;99.90
10802;DHT22;5453;50.852;7.102;2022-10-31T10:07:25;17.60;99.90
10802;DHT22;5453;50.852;7.102;2022-10-31T10:10:25;17.70;99.90
10802;DHT22;5453;50.852;7.102;2022-10-31T10:13:53;17.90;99.90
10802;DHT22;5453;50.852;7.102;2022-10-31T10:16:45;18.10;99.90
10802;DHT22;5453;50.852;7.102;2022-10-31T10:19:43;18.10;99.90
10802;DHT22;5453;50.852;7.102;2022-10-31T10:22:28;18.20;99.90
10802;DHT22;5453;50.852;7.102;2022-10-31T10:25:16;18.30;99.90
10802;DHT22;5453;50.852;7.102;2022-10-31T10:28:00;18.40;99.90
10802;DHT22;5453;50.852;7.102;2022-10-31T10:30:39;18.40;99.90
10802;DHT22;5453;50.852;7.102;2022-10-31T10:33:20;18.30;99.90
10802;DHT22;5453;50.852;7.102;2022-10-31T10:35:57;18.20;99.90
10802;DHT22;5453;50.852;7.102;2022-10-31T10:38:35;18.10;99.90
10802;DHT22;5453;50.852;7.102;2022-10-31T10:41:14;18.00;99.90
10802;DHT22;5453;50.852;7.102;2022-10-31T10:43:49;18.00;99.90
10802;DHT22;5453;50.852;7.102;2022-10-31T10:46:26;18.00;99.90
10802;DHT22;5453;50.852;7.102;2022-10-31T10:49:30;18.10;99.90
10802;DHT22;5453;50.852;7.102;2022-10-31T10:52:12;18.10;99.90
10802;DHT22;5453;50.852;7.102;2022-10-31T10:54:56;18.10;99.90
10802;DHT22;5453;50.852;7.102;2022-10-31T10:57:40;18.10;99.90
10802;DHT22;5453;50.852;7.102;2022-10-31T11:00:21;18.20;99.90
10802;DHT22;5453;50.852;7.102;2022-10-31T11:02:55;18.30;99.90
10802;DHT22;5453;50.852;7.102;2022-10-31T11:05:33;18.20;99.90
10802;DHT22;5453;50.852;7.102;2022-10-31T11:08:07;18.20;99.90
10802;DHT22;5453;50.852;7.102;2022-10-31T11:10:39;18.30;99.90
10802;DHT22;5453;50.852;7.102;2022-10-31T11:13:22;18.40;99.90
10802;DHT22;5453;50.852;7.102;2022-10-31T11:15:59;18.40;99.90
10802;DHT22;5453;50.852;7.102;2022-10-31T11:18:35;18.50;99.90
10802;DHT22;5453;50.852;7.102;2022-10-31T11:21:21;18.50;99.90
10802;DHT22;5453;50.852;7.102;2022-10-31T11:24:02;18.60;99.90
10802;DHT22;5453;50.852;7.102;2022-10-31T11:26:36;18.60;99.90
10802;DHT22;5453;50.852;7.102;2022-10-31T11:29:14;18.60;99.90
10802;DHT22;5453;50.852;7.102;2022-10-31T11:31:50;18.50;99.90
10802;DHT22;5453;50.852;7.102;2022-10-31T11:34:28;18.50;99.90
10802;DHT22;5453;50.852;7.102;2022-10-31T11:37:13;18.50;99.90
10802;DHT22;5453;50.852;7.102;2022-10-31T11:39:50;18.60;99.90
10802;DHT22;5453;50.852;7.102;2022-10-31T11:42:26;18.60;99.90
10802;DHT22;5453;50.852;7.102;2022-10-31T11:45:00;18.60;99.90
10802;DHT22;5453;50.852;7.102;2022-10-31T11:47:36;18.70;99.90
10802;DHT22;5453;50.852;7.102;2022-10-31T11:50:11;18.70;99.90
10802;DHT22;5453;50.852;7.102;2022-10-31T11:52:52;18.80;99.90
10802;DHT22;5453;50.852;7.102;2022-10-31T11:55:32;18.80;99.90
10802;DHT22;5453;50.852;7.102;2022-10-31T11:58:20;18.80;99.90
10802;DHT22;5453;50.852;7.102;2022-10-31T12:00:55;18.80;99.90
10802;DHT22;5453;50.852;7.102;2022-10-31T12:03:40;18.80;99.90
10802;DHT22;5453;50.852;7.102;2022-10-31T12:06:19;18.80;99.90
10802;DHT22;5453;50.852;7.102;2022-10-31T12:08:54;18.80;99.90
10802;DHT22;5453;50.852;7.102;2022-10-31T12:11:43;18.80;99.90
10802;DHT22;5453;50.852;7.102;2022-10-31T12:14:33;18.80;99.90
10802;DHT22;5453;50.852;7.102;2022-10-31T12:17:14;18.90;99.90
10802;DHT22;5453;50.852;7.102;2022-10-31T12:19:57;19.00;99.90
10802;DHT22;5453;50.852;7.102;2022-10-31T12:22:40;18.90;99.90
10802;DHT22;5453;50.852;7.102;2022-10-31T12:25:28;19.00;99.90
10802;DHT22;5453;50.852;7.102;2022-10-31T12:31:21;19.00;99.90
10802;DHT22;5453;50.852;7.102;2022-10-31T12:34:16;19.00;99.90
10802;DHT22;5453;50.852;7.102;2022-10-31T12:37:01;19.10;99.90
10802;DHT22;5453;50.852;7.102;2022-10-31T12:39:44;19.10;99.90
10802;DHT22;5453;50.852;7.102;2022-10-31T12:42:38;19.20;99.90
10802;DHT22;5453;50.852;7.102;2022-10-31T12:45:41;19.20;99.90
10802;DHT22;5453;50.852;7.102;2022-10-31T12:48:42;19.20;99.90
10802;DHT22;5453;50.852;7.102;2022-10-31T12:51:28;19.20;99.90
10802;DHT22;5453;50.852;7.102;2022-10-31T12:54:35;19.20;99.90
10802;DHT22;5453;50.852;7.102;2022-10-31T12:57:22;19.10;99.90
10802;DHT22;5453;50.852;7.102;2022-10-31T13:00:02;19.10;99.90
10802;DHT22;5453;50.852;7.102;2022-10-31T13:02:41;19.00;99.90
10802;DHT22;5453;50.852;7.102;2022-10-31T13:05:21;19.10;99.90
10802;DHT22;5453;50.852;7.102;2022-10-31T13:07:59;19.00;99.90
10802;DHT22;5453;50.852;7.102;2022-10-31T13:10:40;19.00;99.90
10802;DHT22;5453;50.852;7.102;2022-10-31T13:13:19;19.00;99.90
10802;DHT22;5453;50.852;7.102;2022-10-31T13:15:57;19.00;99.90
10802;DHT22;5453;50.852;7.102;2022-10-31T13:18:34;19.00;99.90
10802;DHT22;5453;50.852;7.102;2022-10-31T13:21:15;19.00;99.90
10802;DHT22;5453;50.852;7.102;2022-10-31T13:23:50;19.00;99.90
10802;DHT22;5453;50.852;7.102;2022-10-31T13:26:32;19.00;99.90
10802;DHT22;5453;50.852;7.102;2022-10-31T13:29:15;18.90;99.90
10802;DHT22;5453;50.852;7.102;2022-10-31T13:31:52;18.90;99.90
10802;DHT22;5453;50.852;7.102;2022-10-31T13:34:28;18.90;99.90
10802;DHT22;5453;50.852;7.102;2022-10-31T13:37:10;18.90;99.90
10802;DHT22;5453;50.852;7.102;2022-10-31T13:39:59;19.00;99.90
10802;DHT22;5453;50.852;7.102;2022-10-31T13:42:50;19.00;99.90
10802;DHT22;5453;50.852;7.102;2022-10-31T13:45:26;19.00;99.90
10802;DHT22;5453;50.852;7.102;2022-10-31T13:48:01;19.00;99.90
10802;DHT22;5453;50.852;7.102;2022-10-31T13:50:56;18.90;99.90
10802;DHT22;5453;50.852;7.102;2022-10-31T13:53:38;18.90;99.90
10802;DHT22;5453;50.852;7.102;2022-10-31T13:56:16;18.90;99.90
10802;DHT22;5453;50.852;7.102;2022-10-31T13:59:03;18.90;99.90
10802;DHT22;5453;50.852;7.102;2022-10-31T14:01:47;18.90;99.90
10802;DHT22;5453;50.852;7.102;2022-10-31T14:04:24;18.80;99.90
10802;DHT22;5453;50.852;7.102;2022-10-31T14:07:04;18.80;99.90
10802;DHT22;5453;50.852;7.102;2022-10-31T14:09:39;18.80;99.90
10802;DHT22;5453;50.852;7.102;2022-10-31T14:12:26;18.70;99.90
10802;DHT22;5453;50.852;7.102;2022-10-31T14:15:04;18.80;99.90
10802;DHT22;5453;50.852;7.102;2022-10-31T14:17:47;18.70;99.90
10802;DHT22;5453;50.852;7.102;2022-10-31T14:20:38;18.70;99.90
10802;DHT22;5453;50.852;7.102;2022-10-31T14:23:37;18.70;99.90
10802;DHT22;5453;50.852;7.102;2022-10-31T14:26:20;18.70;99.90
10802;DHT22;5453;50.852;7.102;2022-10-31T14:29:21;18.70;99.90
10802;DHT22;5453;50.852;7.102;2022-10-31T14:32:03;18.70;99.90
10802;DHT22;5453;50.852;7.102;2022-10-31T14:34:42;18.70;99.90
10802;DHT22;5453;50.852;7.102;2022-10-31T14:37:23;18.70;99.90
10802;DHT22;5453;50.852;7.102;2022-10-31T14:40:26;18.70;99.90
10802;DHT22;5453;50.852;7.102;2022-10-31T14:43:23;18.70;99.90
10802;DHT22;5453;50.852;7.102;2022-10-31T14:46:05;18.70;99.90
10802;DHT22;5453;50.852;7.102;2022-10-31T14:48:51;18.70;99.90
10802;DHT22;5453;50.852;7.102;2022-10-31T14:51:38;18.80;99.90
10802;DHT22;5453;50.852;7.102;2022-10-31T14:54:15;18.70;99.90
10802;DHT22;5453;50.852;7.102;2022-10-31T14:56:54;18.70;99.90
10802;DHT22;5453;50.852;7.102;2022-10-31T14:59:31;18.70;99.90
10802;DHT22;5453;50.852;7.102;2022-10-31T15:02:12;18.70;99.90
10802;DHT22;5453;50.852;7.102;2022-10-31T15:04:47;18.70;99.90
10802;DHT22;5453;50.852;7.102;2022-10-31T15:07:22;18.70;99.90
10802;DHT22;5453;50.852;7.102;2022-10-31T15:09:59;18.70;99.90
10802;DHT22;5453;50.852;7.102;2022-10-31T15:12:34;18.70;99.90
10802;DHT22;5453;50.852;7.102;2022-10-31T15:15:12;18.70;99.90
10802;DHT22;5453;50.852;7.102;2022-10-31T15:17:48;18.70;99.90
10802;DHT22;5453;50.852;7.102;2022-10-31T15:20:25;18.70;99.90
10802;DHT22;5453;50.852;7.102;2022-10-31T15:22:59;18.70;99.90
10802;DHT22;5453;50.852;7.102;2022-10-31T15:25:34;18.70;99.90
10802;DHT22;5453;50.852;7.102;2022-10-31T15:28:13;18.60;99.90
10802;DHT22;5453;50.852;7.102;2022-10-31T15:30:50;18.60;99.90
10802;DHT22;5453;50.852;7.102;2022-10-31T15:33:27;18.60;99.90
10802;DHT22;5453;50.852;7.102;2022-10-31T15:36:01;18.60;99.90
10802;DHT22;5453;50.852;7.102;2022-10-31T15:38:33;18.60;99.90
10802;DHT22;5453;50.852;7.102;2022-10-31T15:41:23;18.50;99.90
10802;DHT22;5453;50.852;7.102;2022-10-31T15:44:04;18.50;99.90
10802;DHT22;5453;50.852;7.102;2022-10-31T15:46:43;18.50;99.90
10802;DHT22;5453;50.852;7.102;2022-10-31T15:49:26;18.50;99.90
10802;DHT22;5453;50.852;7.102;2022-10-31T15:52:08;18.40;99.90
10802;DHT22;5453;50.852;7.102;2022-10-31T15:54:47;18.40;99.90
10802;DHT22;5453;50.852;7.102;2022-10-31T15:57:22;18.30;99.90
10802;DHT22;5453;50.852;7.102;2022-10-31T15:59:56;18.30;99.90
10802;DHT22;5453;50.852;7.102;2022-10-31T16:02:28;18.30;99.90
10802;DHT22;5453;50.852;7.102;2022-10-31T16:05:01;18.30;99.90
10802;DHT22;5453;50.852;7.102;2022-10-31T16:07:33;18.20;99.90
10802;DHT22;5453;50.852;7.102;2022-10-31T16:10:21;18.20;99.90
10802;DHT22;5453;50.852;7.102;2022-10-31T16:12:57;18.20;99.90
10802;DHT22;5453;50.852;7.102;2022-10-31T16:15:29;18.20;99.90
10802;DHT22;5453;50.852;7.102;2022-10-31T16:18:02;18.10;99.90
10802;DHT22;5453;50.852;7.102;2022-10-31T16:20:36;18.10;99.90
10802;DHT22;5453;50.852;7.102;2022-10-31T16:23:14;18.10;99.90
10802;DHT22;5453;50.852;7.102;2022-10-31T16:25:48;18.00;99.90
10802;DHT22;5453;50.852;7.102;2022-10-31T16:28:24;18.00;99.90
10802;DHT22;5453;50.852;7.102;2022-10-31T16:30:57;18.00;99.90
10802;DHT22;5453;50.852;7.102;2022-10-31T16:33:31;18.00;99.90
10802;DHT22;5453;50.852;7.102;2022-10-31T16:36:29;18.00;99.90
10802;DHT22;5453;50.852;7.102;2022-10-31T16:39:03;18.00;99.90
10802;DHT22;5453;50.852;7.102;2022-10-31T16:41:39;18.00;99.90
10802;DHT22;5453;50.852;7.102;2022-10-31T16:44:18;17.90;99.90
10802;DHT22;5453;50.852;7.102;2022-10-31T16:47:09;17.90;99.90
10802;DHT22;5453;50.852;7.102;2022-10-31T16:49:46;17.90;99.90
10802;DHT22;5453;50.852;7.102;2022-10-31T16:52:20;18.00;99.90
10802;DHT22;5453;50.852;7.102;2022-10-31T16:54:52;18.00;99.90
10802;DHT22;5453;50.852;7.102;2022-10-31T16:57:29;18.00;99.90
10802;DHT22;5453;50.852;7.102;2022-10-31T17:00:05;18.00;99.90
10802;DHT22;5453;50.852;7.102;2022-10-31T17:02:38;18.10;99.90
10802;DHT22;5453;50.852;7.102;2022-10-31T17:05:12;18.10;99.90